sensor_id;sensor_type;location;lat;lon;timestamp;P1;durP1;ratioP1;P2;durP2;ratioP2
20458;SDS011;10388;52.314;7.938;2022-11-13T00:01:47;17.07;;;12.73;;
20458;SDS011;10388;52.314;7.938;2022-11-13T00:04:18;14.80;;;11.77;;
20458;SDS011;10388;52.314;7.938;2022-11-13T00:06:48;15.33;;;11.93;;
20458;SDS011;10388;52.314;7.938;2022-11-13T00:09:19;14.60;;;10.77;;
20458;SDS011;10388;52.314;7.938;2022-11-13T00:11:50;14.73;;;11.10;;
20458;SDS011;10388;52.314;7.938;2022-11-13T00:14:20;17.10;;;11.53;;
20458;SDS011;10388;52.314;7.938;2022-11-13T00:16:50;17.17;;;11.53;;
20458;SDS011;10388;52.314;7.938;2022-11-13T00:19:21;15.17;;;10.60;;
20458;SDS011;10388;52.314;7.938;2022-11-13T00:21:51;16.67;;;11.33;;
20458;SDS011;10388;52.314;7.938;2022-11-13T00:24:23;15.27;;;11.30;;
20458;SDS011;10388;52.314;7.938;2022-11-13T00:26:54;15.90;;;11.30;;
20458;SDS011;10388;52.314;7.938;2022-11-13T00:29:25;14.40;;;10.80;;
20458;SDS011;10388;52.314;7.938;2022-11-13T00:31:55;14.40;;;11.07;;
20458;SDS011;10388;52.314;7.938;2022-11-13T00:34:26;15.30;;;10.83;;
20458;SDS011;10388;52.314;7.938;2022-11-13T00:36:57;15.63;;;11.43;;
20458;SDS011;10388;52.314;7.938;2022-11-13T00:39:27;15.47;;;10.97;;
20458;SDS011;10388;52.314;7.938;2022-11-13T00:41:58;13.43;;;10.50;;
20458;SDS011;10388;52.314;7.938;2022-11-13T00:44:28;14.27;;;10.70;;
20458;SDS011;10388;52.314;7.938;2022-11-13T00:46:59;12.23;;;10.33;;
20458;SDS011;10388;52.314;7.938;2022-11-13T00:49:29;14.17;;;10.33;;
20458;SDS011;10388;52.314;7.938;2022-11-13T00:52:00;12.97;;;10.47;;
20458;SDS011;10388;52.314;7.938;2022-11-13T00:54:31;15.80;;;11.07;;
20458;SDS011;10388;52.314;7.938;2022-11-13T00:57:02;14.77;;;10.77;;
20458;SDS011;10388;52.314;7.938;2022-11-13T00:59:33;13.47;;;10.27;;
20458;SDS011;10388;52.314;7.938;2022-11-13T01:02:03;13.07;;;9.87;;
20458;SDS011;10388;52.314;7.938;2022-11-13T01:04:34;13.80;;;10.30;;
20458;SDS011;10388;52.314;7.938;2022-11-13T01:07:05;14.77;;;10.60;;
20458;SDS011;10388;52.314;7.938;2022-11-13T01:09:35;12.73;;;9.90;;
20458;SDS011;10388;52.314;7.938;2022-11-13T01:12:06;15.27;;;10.70;;
20458;SDS011;10388;52.314;7.938;2022-11-13T01:14:36;11.13;;;9.33;;
20458;SDS011;10388;52.314;7.938;2022-11-13T01:28:59;13.60;;;9.77;;
20458;SDS011;10388;52.314;7.938;2022-11-13T01:57:33;11.03;;;8.70;;
20458;SDS011;10388;52.314;7.938;2022-11-13T02:00:55;12.37;;;9.57;;
20458;SDS011;10388;52.314;7.938;2022-11-13T02:08:08;12.63;;;9.60;;
20458;SDS011;10388;52.314;7.938;2022-11-13T03:46:29;11.50;;;8.70;;
20458;SDS011;10388;52.314;7.938;2022-11-13T04:25:26;13.90;;;10.43;;
20458;SDS011;10388;52.314;7.938;2022-11-13T04:39:04;11.20;;;8.97;;
20458;SDS011;10388;52.314;7.938;2022-11-13T04:42:09;11.53;;;9.23;;
20458;SDS011;10388;52.314;7.938;2022-11-13T05:06:39;9.20;;;7.70;;
20458;SDS011;10388;52.314;7.938;2022-11-13T05:09:10;11.43;;;8.17;;
20458;SDS011;10388;52.314;7.938;2022-11-13T05:11:40;9.47;;;7.63;;
20458;SDS011;10388;52.314;7.938;2022-11-13T05:14:11;9.50;;;8.00;;
20458;SDS011;10388;52.314;7.938;2022-11-13T05:16:42;9.97;;;7.87;;
20458;SDS011;10388;52.314;7.938;2022-11-13T05:19:13;8.93;;;7.60;;
20458;SDS011;10388;52.314;7.938;2022-11-13T05:21:43;10.13;;;8.00;;
20458;SDS011;10388;52.314;7.938;2022-11-13T05:24:14;9.87;;;8.17;;
20458;SDS011;10388;52.314;7.938;2022-11-13T05:26:44;12.40;;;8.10;;
20458;SDS011;10388;52.314;7.938;2022-11-13T05:29:15;9.23;;;7.70;;
20458;SDS011;10388;52.314;7.938;2022-11-13T05:31:46;10.40;;;8.40;;
20458;SDS011;10388;52.314;7.938;2022-11-13T05:34:16;10.40;;;8.03;;
20458;SDS011;10388;52.314;7.938;2022-11-13T05:36:47;10.00;;;8.00;;
20458;SDS011;10388;52.314;7.938;2022-11-13T05:39:17;9.33;;;7.73;;
20458;SDS011;10388;52.314;7.938;2022-11-13T05:41:48;10.60;;;8.70;;
20458;SDS011;10388;52.314;7.938;2022-11-13T05:44:18;10.23;;;8.23;;
20458;SDS011;10388;52.314;7.938;2022-11-13T05:46:49;8.80;;;7.50;;
20458;SDS011;10388;52.314;7.938;2022-11-13T05:49:19;10.97;;;8.40;;
20458;SDS011;10388;52.314;7.938;2022-11-13T05:51:50;15.27;;;11.33;;
20458;SDS011;10388;52.314;7.938;2022-11-13T05:54:22;14.33;;;10.17;;
20458;SDS011;10388;52.314;7.938;2022-11-13T05:56:53;14.97;;;10.83;;
20458;SDS011;10388;52.314;7.938;2022-11-13T05:59:23;16.30;;;11.03;;
20458;SDS011;10388;52.314;7.938;2022-11-13T06:01:54;18.50;;;11.87;;
20458;SDS011;10388;52.314;7.938;2022-11-13T06:04:24;13.83;;;10.83;;
20458;SDS011;10388;52.314;7.938;2022-11-13T06:06:55;16.20;;;11.13;;
20458;SDS011;10388;52.314;7.938;2022-11-13T06:09:25;16.93;;;11.23;;
20458;SDS011;10388;52.314;7.938;2022-11-13T06:11:56;13.73;;;10.47;;
20458;SDS011;10388;52.314;7.938;2022-11-13T06:14:26;13.33;;;9.30;;
20458;SDS011;10388;52.314;7.938;2022-11-13T06:16:57;13.47;;;10.40;;
20458;SDS011;10388;52.314;7.938;2022-11-13T06:19:28;12.87;;;9.23;;
20458;SDS011;10388;52.314;7.938;2022-11-13T06:21:58;13.00;;;9.90;;
20458;SDS011;10388;52.314;7.938;2022-11-13T06:24:29;12.47;;;8.93;;
20458;SDS011;10388;52.314;7.938;2022-11-13T06:26:59;10.57;;;8.70;;
20458;SDS011;10388;52.314;7.938;2022-11-13T06:29:30;11.10;;;8.70;;
20458;SDS011;10388;52.314;7.938;2022-11-13T06:32:00;12.53;;;8.97;;
20458;SDS011;10388;52.314;7.938;2022-11-13T06:34:31;11.80;;;8.20;;
20458;SDS011;10388;52.314;7.938;2022-11-13T06:37:01;14.23;;;8.73;;
20458;SDS011;10388;52.314;7.938;2022-11-13T06:39:32;12.50;;;8.93;;
20458;SDS011;10388;52.314;7.938;2022-11-13T06:42:02;10.87;;;8.47;;
20458;SDS011;10388;52.314;7.938;2022-11-13T06:44:33;10.50;;;8.40;;
20458;SDS011;10388;52.314;7.938;2022-11-13T06:47:03;13.00;;;8.50;;
20458;SDS011;10388;52.314;7.938;2022-11-13T06:49:34;11.53;;;9.00;;
20458;SDS011;10388;52.314;7.938;2022-11-13T06:52:04;10.70;;;8.40;;
20458;SDS011;10388;52.314;7.938;2022-11-13T06:54:36;11.53;;;9.50;;
20458;SDS011;10388;52.314;7.938;2022-11-13T06:57:06;11.70;;;8.43;;
20458;SDS011;10388;52.314;7.938;2022-11-13T06:59:37;10.13;;;8.30;;
20458;SDS011;10388;52.314;7.938;2022-11-13T07:02:09;11.10;;;8.43;;
20458;SDS011;10388;52.314;7.938;2022-11-13T07:04:40;13.83;;;8.87;;
20458;SDS011;10388;52.314;7.938;2022-11-13T07:07:11;11.13;;;8.90;;
20458;SDS011;10388;52.314;7.938;2022-11-13T07:09:41;13.20;;;9.17;;
20458;SDS011;10388;52.314;7.938;2022-11-13T07:12:12;10.37;;;8.60;;
20458;SDS011;10388;52.314;7.938;2022-11-13T07:14:42;11.83;;;8.57;;
20458;SDS011;10388;52.314;7.938;2022-11-13T07:17:13;11.83;;;9.10;;
20458;SDS011;10388;52.314;7.938;2022-11-13T07:19:43;10.70;;;8.53;;
20458;SDS011;10388;52.314;7.938;2022-11-13T07:22:14;14.60;;;9.20;;
20458;SDS011;10388;52.314;7.938;2022-11-13T07:24:44;13.93;;;10.63;;
20458;SDS011;10388;52.314;7.938;2022-11-13T07:27:15;13.53;;;9.97;;
20458;SDS011;10388;52.314;7.938;2022-11-13T07:29:45;14.73;;;10.23;;
20458;SDS011;10388;52.314;7.938;2022-11-13T07:32:16;13.13;;;10.13;;
20458;SDS011;10388;52.314;7.938;2022-11-13T07:34:46;14.37;;;9.83;;
20458;SDS011;10388;52.314;7.938;2022-11-13T07:37:17;14.00;;;8.90;;
20458;SDS011;10388;52.314;7.938;2022-11-13T07:39:48;12.33;;;9.70;;
20458;SDS011;10388;52.314;7.938;2022-11-13T07:42:18;13.63;;;10.27;;
20458;SDS011;10388;52.314;7.938;2022-11-13T07:44:49;14.00;;;10.73;;
20458;SDS011;10388;52.314;7.938;2022-11-13T07:47:19;16.80;;;10.80;;
20458;SDS011;10388;52.314;7.938;2022-11-13T07:49:50;14.80;;;10.10;;
20458;SDS011;10388;52.314;7.938;2022-11-13T07:52:20;15.23;;;10.27;;
20458;SDS011;10388;52.314;7.938;2022-11-13T07:54:51;15.97;;;11.40;;
20458;SDS011;10388;52.314;7.938;2022-11-13T07:57:21;13.47;;;10.33;;
20458;SDS011;10388;52.314;7.938;2022-11-13T07:59:52;15.60;;;11.30;;
20458;SDS011;10388;52.314;7.938;2022-11-13T08:02:22;18.63;;;11.27;;
20458;SDS011;10388;52.314;7.938;2022-11-13T08:04:53;18.80;;;11.30;;
20458;SDS011;10388;52.314;7.938;2022-11-13T08:07:23;15.50;;;12.03;;
20458;SDS011;10388;52.314;7.938;2022-11-13T08:09:54;20.50;;;12.33;;
20458;SDS011;10388;52.314;7.938;2022-11-13T08:12:24;15.17;;;11.57;;
20458;SDS011;10388;52.314;7.938;2022-11-13T08:14:55;13.60;;;10.40;;
20458;SDS011;10388;52.314;7.938;2022-11-13T08:17:25;15.20;;;10.20;;
20458;SDS011;10388;52.314;7.938;2022-11-13T08:19:56;17.63;;;10.67;;
20458;SDS011;10388;52.314;7.938;2022-11-13T08:22:26;14.30;;;10.23;;
20458;SDS011;10388;52.314;7.938;2022-11-13T08:24:58;13.67;;;10.30;;
20458;SDS011;10388;52.314;7.938;2022-11-13T08:27:29;14.20;;;10.03;;
20458;SDS011;10388;52.314;7.938;2022-11-13T08:29:59;12.97;;;9.77;;
20458;SDS011;10388;52.314;7.938;2022-11-13T08:32:30;13.30;;;10.23;;
20458;SDS011;10388;52.314;7.938;2022-11-13T08:35:00;12.23;;;9.73;;
20458;SDS011;10388;52.314;7.938;2022-11-13T08:37:31;11.80;;;9.53;;
20458;SDS011;10388;52.314;7.938;2022-11-13T08:40:02;12.60;;;10.27;;
20458;SDS011;10388;52.314;7.938;2022-11-13T08:42:33;13.20;;;11.10;;
20458;SDS011;10388;52.314;7.938;2022-11-13T08:45:04;13.50;;;10.53;;
20458;SDS011;10388;52.314;7.938;2022-11-13T08:47:35;13.70;;;9.93;;
20458;SDS011;10388;52.314;7.938;2022-11-13T08:50:06;13.47;;;9.93;;
20458;SDS011;10388;52.314;7.938;2022-11-13T08:52:36;13.47;;;10.17;;
20458;SDS011;10388;52.314;7.938;2022-11-13T08:55:07;13.63;;;10.60;;
20458;SDS011;10388;52.314;7.938;2022-11-13T08:57:38;17.27;;;11.70;;
20458;SDS011;10388;52.314;7.938;2022-11-13T09:00:09;12.40;;;10.17;;
20458;SDS011;10388;52.314;7.938;2022-11-13T09:02:40;11.80;;;9.77;;
20458;SDS011;10388;52.314;7.938;2022-11-13T09:05:11;11.23;;;9.17;;
20458;SDS011;10388;52.314;7.938;2022-11-13T09:07:42;10.03;;;8.30;;
20458;SDS011;10388;52.314;7.938;2022-11-13T09:10:12;11.03;;;8.77;;
20458;SDS011;10388;52.314;7.938;2022-11-13T09:12:43;10.13;;;6.90;;
20458;SDS011;10388;52.314;7.938;2022-11-13T09:15:14;8.13;;;6.03;;
20458;SDS011;10388;52.314;7.938;2022-11-13T09:17:44;6.80;;;5.97;;
20458;SDS011;10388;52.314;7.938;2022-11-13T09:20:15;8.20;;;5.37;;
20458;SDS011;10388;52.314;7.938;2022-11-13T09:22:45;5.30;;;4.53;;
20458;SDS011;10388;52.314;7.938;2022-11-13T09:25:16;4.17;;;3.77;;
20458;SDS011;10388;52.314;7.938;2022-11-13T09:27:53;6.93;;;3.80;;
20458;SDS011;10388;52.314;7.938;2022-11-13T09:30:25;4.27;;;3.47;;
20458;SDS011;10388;52.314;7.938;2022-11-13T09:32:57;4.37;;;3.27;;
20458;SDS011;10388;52.314;7.938;2022-11-13T09:35:29;4.07;;;3.40;;
20458;SDS011;10388;52.314;7.938;2022-11-13T09:38:05;3.67;;;3.17;;
20458;SDS011;10388;52.314;7.938;2022-11-13T09:46:28;3.50;;;3.10;;
20458;SDS011;10388;52.314;7.938;2022-11-13T09:49:16;7.10;;;3.10;;
20458;SDS011;10388;52.314;7.938;2022-11-13T09:51:56;3.37;;;2.70;;
20458;SDS011;10388;52.314;7.938;2022-11-13T09:54:33;3.00;;;2.70;;
20458;SDS011;10388;52.314;7.938;2022-11-13T10:00:31;2.87;;;2.50;;
20458;SDS011;10388;52.314;7.938;2022-11-13T10:03:14;3.50;;;2.77;;
20458;SDS011;10388;52.314;7.938;2022-11-13T10:08:57;2.90;;;2.07;;
20458;SDS011;10388;52.314;7.938;2022-11-13T10:12:15;2.40;;;2.20;;
20458;SDS011;10388;52.314;7.938;2022-11-13T10:14:28;2.87;;;2.33;;
20458;SDS011;10388;52.314;7.938;2022-11-13T10:17:12;3.03;;;2.23;;
20458;SDS011;10388;52.314;7.938;2022-11-13T10:20:00;2.60;;;2.30;;
20458;SDS011;10388;52.314;7.938;2022-11-13T10:22:40;6.13;;;3.40;;
20458;SDS011;10388;52.314;7.938;2022-11-13T10:25:22;3.13;;;2.67;;
20458;SDS011;10388;52.314;7.938;2022-11-13T10:27:56;3.57;;;3.10;;
20458;SDS011;10388;52.314;7.938;2022-11-13T10:30:29;3.90;;;2.87;;
20458;SDS011;10388;52.314;7.938;2022-11-13T10:33:06;3.30;;;2.67;;
20458;SDS011;10388;52.314;7.938;2022-11-13T10:41:06;3.63;;;2.77;;
20458;SDS011;10388;52.314;7.938;2022-11-13T10:43:53;4.30;;;2.80;;
20458;SDS011;10388;52.314;7.938;2022-11-13T10:46:26;3.63;;;2.73;;
20458;SDS011;10388;52.314;7.938;2022-11-13T10:49:09;2.40;;;2.10;;
20458;SDS011;10388;52.314;7.938;2022-11-13T10:51:56;3.10;;;2.00;;
20458;SDS011;10388;52.314;7.938;2022-11-13T10:54:30;2.73;;;2.10;;
20458;SDS011;10388;52.314;7.938;2022-11-13T10:57:03;2.70;;;2.00;;
20458;SDS011;10388;52.314;7.938;2022-11-13T10:59:48;3.30;;;2.20;;
20458;SDS011;10388;52.314;7.938;2022-11-13T11:02:20;2.83;;;2.30;;
20458;SDS011;10388;52.314;7.938;2022-11-13T11:05:06;4.77;;;2.50;;
20458;SDS011;10388;52.314;7.938;2022-11-13T11:07:50;3.97;;;2.30;;
20458;SDS011;10388;52.314;7.938;2022-11-13T11:10:30;3.03;;;2.00;;
20458;SDS011;10388;52.314;7.938;2022-11-13T11:18:29;3.47;;;2.47;;
20458;SDS011;10388;52.314;7.938;2022-11-13T11:21:11;2.23;;;2.00;;
20458;SDS011;10388;52.314;7.938;2022-11-13T11:26:28;2.83;;;2.53;;
20458;SDS011;10388;52.314;7.938;2022-11-13T11:29:07;2.90;;;2.20;;
20458;SDS011;10388;52.314;7.938;2022-11-13T11:34:27;1.93;;;1.77;;
20458;SDS011;10388;52.314;7.938;2022-11-13T11:37:10;2.80;;;2.37;;
20458;SDS011;10388;52.314;7.938;2022-11-13T11:39:54;3.33;;;2.50;;
20458;SDS011;10388;52.314;7.938;2022-11-13T11:45:13;2.23;;;1.90;;
20458;SDS011;10388;52.314;7.938;2022-11-13T11:47:49;1.80;;;1.70;;
20458;SDS011;10388;52.314;7.938;2022-11-13T11:50:28;5.37;;;2.40;;
20458;SDS011;10388;52.314;7.938;2022-11-13T11:53:10;3.20;;;1.70;;
20458;SDS011;10388;52.314;7.938;2022-11-13T11:55:56;3.57;;;2.10;;
20458;SDS011;10388;52.314;7.938;2022-11-13T12:01:37;2.17;;;1.87;;
20458;SDS011;10388;52.314;7.938;2022-11-13T12:04:34;3.83;;;2.27;;
20458;SDS011;10388;52.314;7.938;2022-11-13T12:07:11;2.53;;;1.90;;
20458;SDS011;10388;52.314;7.938;2022-11-13T12:12:55;3.20;;;2.30;;
20458;SDS011;10388;52.314;7.938;2022-11-13T12:35:49;2.00;;;1.50;;
20458;SDS011;10388;52.314;7.938;2022-11-13T12:38:26;2.13;;;1.63;;
20458;SDS011;10388;52.314;7.938;2022-11-13T12:41:13;1.57;;;1.47;;
20458;SDS011;10388;52.314;7.938;2022-11-13T12:46:56;1.30;;;1.20;;
20458;SDS011;10388;52.314;7.938;2022-11-13T12:49:33;1.40;;;1.30;;
20458;SDS011;10388;52.314;7.938;2022-11-13T12:54:44;1.80;;;1.40;;
20458;SDS011;10388;52.314;7.938;2022-11-13T12:57:16;1.63;;;1.53;;
20458;SDS011;10388;52.314;7.938;2022-11-13T12:59:54;2.30;;;1.90;;
20458;SDS011;10388;52.314;7.938;2022-11-13T13:10:27;3.07;;;2.77;;
20458;SDS011;10388;52.314;7.938;2022-11-13T13:16:04;3.30;;;3.00;;
20458;SDS011;10388;52.314;7.938;2022-11-13T13:18:38;4.10;;;3.37;;
20458;SDS011;10388;52.314;7.938;2022-11-13T13:21:10;3.50;;;3.20;;
20458;SDS011;10388;52.314;7.938;2022-11-13T13:23:48;4.10;;;3.50;;
20458;SDS011;10388;52.314;7.938;2022-11-13T13:28:53;4.07;;;3.67;;
20458;SDS011;10388;52.314;7.938;2022-11-13T13:37:07;4.17;;;3.60;;
20458;SDS011;10388;52.314;7.938;2022-11-13T13:39:50;4.30;;;3.87;;
20458;SDS011;10388;52.314;7.938;2022-11-13T13:43:05;4.30;;;3.90;;
20458;SDS011;10388;52.314;7.938;2022-11-13T13:48:10;4.77;;;4.27;;
20458;SDS011;10388;52.314;7.938;2022-11-13T13:50:46;4.90;;;4.37;;
20458;SDS011;10388;52.314;7.938;2022-11-13T13:53:21;4.70;;;4.20;;
20458;SDS011;10388;52.314;7.938;2022-11-13T13:56:03;4.57;;;4.10;;
20458;SDS011;10388;52.314;7.938;2022-11-13T13:58:38;5.00;;;4.40;;
20458;SDS011;10388;52.314;7.938;2022-11-13T14:01:13;4.93;;;3.97;;
20458;SDS011;10388;52.314;7.938;2022-11-13T14:04:02;5.67;;;4.03;;
20458;SDS011;10388;52.314;7.938;2022-11-13T14:06:33;6.63;;;4.70;;
20458;SDS011;10388;52.314;7.938;2022-11-13T14:09:08;5.13;;;4.60;;
20458;SDS011;10388;52.314;7.938;2022-11-13T14:11:39;5.00;;;4.50;;
20458;SDS011;10388;52.314;7.938;2022-11-13T14:14:15;7.83;;;5.47;;
20458;SDS011;10388;52.314;7.938;2022-11-13T14:16:51;5.50;;;4.87;;
20458;SDS011;10388;52.314;7.938;2022-11-13T14:19:23;5.70;;;5.03;;
20458;SDS011;10388;52.314;7.938;2022-11-13T14:21:58;5.63;;;4.77;;
20458;SDS011;10388;52.314;7.938;2022-11-13T14:24:31;6.30;;;5.37;;
20458;SDS011;10388;52.314;7.938;2022-11-13T14:27:17;6.53;;;5.23;;
20458;SDS011;10388;52.314;7.938;2022-11-13T14:29:55;7.13;;;6.27;;
20458;SDS011;10388;52.314;7.938;2022-11-13T14:32:32;7.00;;;5.60;;
20458;SDS011;10388;52.314;7.938;2022-11-13T14:35:15;7.87;;;5.50;;
20458;SDS011;10388;52.314;7.938;2022-11-13T14:37:48;6.90;;;5.70;;
20458;SDS011;10388;52.314;7.938;2022-11-13T14:40:25;7.57;;;5.50;;
20458;SDS011;10388;52.314;7.938;2022-11-13T14:43:00;8.17;;;4.80;;
20458;SDS011;10388;52.314;7.938;2022-11-13T14:45:34;6.63;;;5.10;;
20458;SDS011;10388;52.314;7.938;2022-11-13T14:48:24;7.07;;;5.17;;
20458;SDS011;10388;52.314;7.938;2022-11-13T14:51:04;5.97;;;5.37;;
20458;SDS011;10388;52.314;7.938;2022-11-13T14:53:37;5.60;;;5.00;;
20458;SDS011;10388;52.314;7.938;2022-11-13T14:56:10;8.30;;;5.13;;
20458;SDS011;10388;52.314;7.938;2022-11-13T14:58:42;5.80;;;4.70;;
20458;SDS011;10388;52.314;7.938;2022-11-13T15:01:18;8.70;;;6.03;;
20458;SDS011;10388;52.314;7.938;2022-11-13T15:03:51;6.97;;;5.40;;
20458;SDS011;10388;52.314;7.938;2022-11-13T15:06:23;6.43;;;5.40;;
20458;SDS011;10388;52.314;7.938;2022-11-13T15:08:55;7.50;;;5.37;;
20458;SDS011;10388;52.314;7.938;2022-11-13T15:11:27;6.13;;;5.30;;
20458;SDS011;10388;52.314;7.938;2022-11-13T15:13:57;10.03;;;5.70;;
20458;SDS011;10388;52.314;7.938;2022-11-13T15:16:28;6.33;;;5.47;;
20458;SDS011;10388;52.314;7.938;2022-11-13T15:19:00;6.07;;;5.40;;
20458;SDS011;10388;52.314;7.938;2022-11-13T15:21:34;11.50;;;5.93;;
20458;SDS011;10388;52.314;7.938;2022-11-13T15:24:05;6.63;;;5.70;;
20458;SDS011;10388;52.314;7.938;2022-11-13T15:26:35;7.77;;;6.00;;
20458;SDS011;10388;52.314;7.938;2022-11-13T15:29:06;7.33;;;6.00;;
20458;SDS011;10388;52.314;7.938;2022-11-13T15:31:39;8.97;;;6.20;;
20458;SDS011;10388;52.314;7.938;2022-11-13T15:34:11;9.67;;;6.73;;
20458;SDS011;10388;52.314;7.938;2022-11-13T15:36:43;10.77;;;6.93;;
20458;SDS011;10388;52.314;7.938;2022-11-13T15:39:14;8.00;;;6.63;;
20458;SDS011;10388;52.314;7.938;2022-11-13T15:41:45;8.63;;;6.80;;
20458;SDS011;10388;52.314;7.938;2022-11-13T15:44:16;13.07;;;8.07;;
20458;SDS011;10388;52.314;7.938;2022-11-13T15:46:46;9.30;;;7.23;;
20458;SDS011;10388;52.314;7.938;2022-11-13T15:49:17;9.10;;;7.13;;
20458;SDS011;10388;52.314;7.938;2022-11-13T15:51:47;9.73;;;7.47;;
20458;SDS011;10388;52.314;7.938;2022-11-13T15:54:23;11.93;;;8.00;;
20458;SDS011;10388;52.314;7.938;2022-11-13T15:56:56;9.93;;;7.50;;
20458;SDS011;10388;52.314;7.938;2022-11-13T15:59:27;10.20;;;8.37;;
20458;SDS011;10388;52.314;7.938;2022-11-13T16:01:57;11.93;;;9.17;;
20458;SDS011;10388;52.314;7.938;2022-11-13T16:04:28;12.80;;;8.80;;
20458;SDS011;10388;52.314;7.938;2022-11-13T16:06:58;12.43;;;8.90;;
20458;SDS011;10388;52.314;7.938;2022-11-13T16:09:29;11.63;;;9.03;;
20458;SDS011;10388;52.314;7.938;2022-11-13T16:12:00;11.90;;;9.10;;
20458;SDS011;10388;52.314;7.938;2022-11-13T16:14:31;13.00;;;9.90;;
20458;SDS011;10388;52.314;7.938;2022-11-13T16:17:01;12.40;;;9.90;;
20458;SDS011;10388;52.314;7.938;2022-11-13T16:19:32;16.03;;;11.30;;
20458;SDS011;10388;52.314;7.938;2022-11-13T16:22:13;13.23;;;9.97;;
20458;SDS011;10388;52.314;7.938;2022-11-13T16:24:46;13.77;;;10.13;;
20458;SDS011;10388;52.314;7.938;2022-11-13T16:27:24;15.63;;;10.40;;
20458;SDS011;10388;52.314;7.938;2022-11-13T16:30:00;14.77;;;9.27;;
20458;SDS011;10388;52.314;7.938;2022-11-13T16:32:30;13.17;;;9.43;;
20458;SDS011;10388;52.314;7.938;2022-11-13T16:35:01;14.57;;;10.33;;
20458;SDS011;10388;52.314;7.938;2022-11-13T16:37:31;14.60;;;10.23;;
20458;SDS011;10388;52.314;7.938;2022-11-13T16:40:02;14.17;;;10.67;;
20458;SDS011;10388;52.314;7.938;2022-11-13T16:42:32;16.33;;;10.90;;
20458;SDS011;10388;52.314;7.938;2022-11-13T16:45:03;15.80;;;11.37;;
20458;SDS011;10388;52.314;7.938;2022-11-13T16:47:34;19.20;;;11.63;;
20458;SDS011;10388;52.314;7.938;2022-11-13T16:50:10;15.83;;;11.33;;
20458;SDS011;10388;52.314;7.938;2022-11-13T16:52:43;20.63;;;12.07;;
20458;SDS011;10388;52.314;7.938;2022-11-13T16:55:13;16.97;;;12.03;;
20458;SDS011;10388;52.314;7.938;2022-11-13T16:57:44;18.93;;;12.33;;
20458;SDS011;10388;52.314;7.938;2022-11-13T17:00:15;17.83;;;12.47;;
20458;SDS011;10388;52.314;7.938;2022-11-13T17:02:48;20.37;;;13.20;;
20458;SDS011;10388;52.314;7.938;2022-11-13T17:05:21;20.47;;;14.67;;
20458;SDS011;10388;52.314;7.938;2022-11-13T17:07:55;23.27;;;14.70;;
20458;SDS011;10388;52.314;7.938;2022-11-13T17:10:26;22.43;;;15.00;;
20458;SDS011;10388;52.314;7.938;2022-11-13T17:12:57;24.40;;;14.20;;
20458;SDS011;10388;52.314;7.938;2022-11-13T17:15:28;25.50;;;16.23;;
20458;SDS011;10388;52.314;7.938;2022-11-13T17:18:00;26.10;;;16.77;;
20458;SDS011;10388;52.314;7.938;2022-11-13T17:20:31;28.03;;;17.27;;
20458;SDS011;10388;52.314;7.938;2022-11-13T17:23:05;27.23;;;18.03;;
20458;SDS011;10388;52.314;7.938;2022-11-13T17:25:36;28.03;;;17.83;;
20458;SDS011;10388;52.314;7.938;2022-11-13T17:28:06;31.33;;;19.40;;
20458;SDS011;10388;52.314;7.938;2022-11-13T17:30:37;37.03;;;21.63;;
20458;SDS011;10388;52.314;7.938;2022-11-13T17:33:07;35.00;;;20.63;;
20458;SDS011;10388;52.314;7.938;2022-11-13T17:35:38;35.07;;;21.00;;
20458;SDS011;10388;52.314;7.938;2022-11-13T17:38:11;37.20;;;23.37;;
20458;SDS011;10388;52.314;7.938;2022-11-13T17:40:42;37.03;;;22.93;;
20458;SDS011;10388;52.314;7.938;2022-11-13T17:43:13;38.20;;;24.00;;
20458;SDS011;10388;52.314;7.938;2022-11-13T17:45:47;40.23;;;23.73;;
20458;SDS011;10388;52.314;7.938;2022-11-13T17:48:19;42.63;;;23.77;;
20458;SDS011;10388;52.314;7.938;2022-11-13T17:50:57;45.67;;;26.87;;
20458;SDS011;10388;52.314;7.938;2022-11-13T17:53:28;42.63;;;25.47;;
20458;SDS011;10388;52.314;7.938;2022-11-13T17:56:00;41.20;;;24.73;;
20458;SDS011;10388;52.314;7.938;2022-11-13T17:58:36;40.93;;;24.57;;
20458;SDS011;10388;52.314;7.938;2022-11-13T18:01:11;42.30;;;26.30;;
20458;SDS011;10388;52.314;7.938;2022-11-13T18:03:43;44.73;;;25.33;;
20458;SDS011;10388;52.314;7.938;2022-11-13T18:06:15;39.47;;;25.13;;
20458;SDS011;10388;52.314;7.938;2022-11-13T18:08:48;44.50;;;26.30;;
20458;SDS011;10388;52.314;7.938;2022-11-13T18:11:20;41.30;;;25.30;;
20458;SDS011;10388;52.314;7.938;2022-11-13T18:13:53;41.03;;;25.87;;
20458;SDS011;10388;52.314;7.938;2022-11-13T18:16:25;44.07;;;26.27;;
20458;SDS011;10388;52.314;7.938;2022-11-13T18:19:03;41.43;;;24.13;;
20458;SDS011;10388;52.314;7.938;2022-11-13T18:21:36;40.67;;;25.13;;
20458;SDS011;10388;52.314;7.938;2022-11-13T18:24:15;39.87;;;23.93;;
20458;SDS011;10388;52.314;7.938;2022-11-13T18:26:47;40.23;;;24.23;;
20458;SDS011;10388;52.314;7.938;2022-11-13T18:29:17;43.23;;;26.40;;
20458;SDS011;10388;52.314;7.938;2022-11-13T18:31:48;41.10;;;24.90;;
20458;SDS011;10388;52.314;7.938;2022-11-13T18:34:18;40.57;;;25.43;;
20458;SDS011;10388;52.314;7.938;2022-11-13T18:36:49;38.90;;;23.57;;
20458;SDS011;10388;52.314;7.938;2022-11-13T18:39:20;42.57;;;26.17;;
20458;SDS011;10388;52.314;7.938;2022-11-13T18:41:50;41.73;;;24.50;;
20458;SDS011;10388;52.314;7.938;2022-11-13T18:44:21;43.57;;;23.70;;
20458;SDS011;10388;52.314;7.938;2022-11-13T18:46:51;38.20;;;23.33;;
20458;SDS011;10388;52.314;7.938;2022-11-13T18:49:22;42.30;;;23.50;;
20458;SDS011;10388;52.314;7.938;2022-11-13T18:51:52;40.37;;;23.73;;
20458;SDS011;10388;52.314;7.938;2022-11-13T18:54:23;40.30;;;23.73;;
20458;SDS011;10388;52.314;7.938;2022-11-13T18:56:53;41.13;;;25.00;;
20458;SDS011;10388;52.314;7.938;2022-11-13T18:59:24;41.03;;;24.70;;
20458;SDS011;10388;52.314;7.938;2022-11-13T19:01:55;39.60;;;22.40;;
20458;SDS011;10388;52.314;7.938;2022-11-13T19:04:25;41.57;;;22.80;;
20458;SDS011;10388;52.314;7.938;2022-11-13T19:06:56;36.43;;;21.43;;
20458;SDS011;10388;52.314;7.938;2022-11-13T19:09:27;37.17;;;21.87;;
20458;SDS011;10388;52.314;7.938;2022-11-13T19:11:58;34.67;;;21.23;;
20458;SDS011;10388;52.314;7.938;2022-11-13T19:14:28;37.23;;;22.47;;
20458;SDS011;10388;52.314;7.938;2022-11-13T19:16:59;39.23;;;21.50;;
20458;SDS011;10388;52.314;7.938;2022-11-13T19:19:29;40.07;;;23.70;;
20458;SDS011;10388;52.314;7.938;2022-11-13T19:22:00;39.37;;;23.17;;
20458;SDS011;10388;52.314;7.938;2022-11-13T19:24:30;39.90;;;23.27;;
20458;SDS011;10388;52.314;7.938;2022-11-13T19:27:01;35.03;;;21.27;;
20458;SDS011;10388;52.314;7.938;2022-11-13T19:29:31;42.03;;;23.33;;
20458;SDS011;10388;52.314;7.938;2022-11-13T19:32:02;35.17;;;21.43;;
20458;SDS011;10388;52.314;7.938;2022-11-13T19:34:33;35.63;;;20.47;;
20458;SDS011;10388;52.314;7.938;2022-11-13T19:37:03;38.43;;;21.97;;
20458;SDS011;10388;52.314;7.938;2022-11-13T19:39:34;38.77;;;21.50;;
20458;SDS011;10388;52.314;7.938;2022-11-13T19:42:04;36.20;;;21.03;;
20458;SDS011;10388;52.314;7.938;2022-11-13T19:44:35;36.57;;;20.67;;
20458;SDS011;10388;52.314;7.938;2022-11-13T19:47:05;41.07;;;21.77;;
20458;SDS011;10388;52.314;7.938;2022-11-13T19:49:36;41.00;;;21.60;;
20458;SDS011;10388;52.314;7.938;2022-11-13T19:52:08;40.80;;;21.00;;
20458;SDS011;10388;52.314;7.938;2022-11-13T19:54:39;36.63;;;21.50;;
20458;SDS011;10388;52.314;7.938;2022-11-13T19:57:10;39.07;;;22.67;;
20458;SDS011;10388;52.314;7.938;2022-11-13T19:59:41;37.77;;;20.53;;
20458;SDS011;10388;52.314;7.938;2022-11-13T20:02:11;38.93;;;21.30;;